createdAt,value
2023-02-11T00:00:29.337Z,97.20
2023-02-11T00:01:18.978Z,97.60
2023-02-11T00:01:51.212Z,97.20
2023-02-11T00:02:23.647Z,97.20
2023-02-11T00:02:55.429Z,97.20
2023-02-11T00:03:27.283Z,97.80
2023-02-11T00:04:00.139Z,97.20
2023-02-11T00:04:32.237Z,97.60
2023-02-11T00:05:04.592Z,97.20
2023-02-11T00:05:37.087Z,97.20
2023-02-11T00:06:11.878Z,97.20
2023-02-11T00:06:43.774Z,97.40
2023-02-11T00:07:15.579Z,97.30
2023-02-11T00:07:47.343Z,97.20
2023-02-11T00:08:19.079Z,98.10
2023-02-11T00:08:50.950Z,97.80
2023-02-11T00:09:23.097Z,97.70
2023-02-11T00:09:54.935Z,97.70
2023-02-11T00:10:26.797Z,97.20
2023-02-11T00:10:58.913Z,97.20
2023-02-11T00:11:30.969Z,97.50
2023-02-11T00:12:02.842Z,97.20
2023-02-11T00:12:35.894Z,97.20
2023-02-11T00:13:07.676Z,97.20
2023-02-11T00:13:39.437Z,97.50
2023-02-11T00:14:12.136Z,97.30
2023-02-11T00:14:43.896Z,97.90
2023-02-11T00:15:15.768Z,97.20
2023-02-11T00:15:47.824Z,97.20
2023-02-11T00:16:21.091Z,97.60
2023-02-11T00:16:52.946Z,97.20
2023-02-11T00:17:24.885Z,97.20
2023-02-11T00:17:56.612Z,97.20
2023-02-11T00:18:28.710Z,97.20
2023-02-11T00:19:01.851Z,97.70
2023-02-11T00:19:33.721Z,97.80
2023-02-11T00:20:08.252Z,97.70
2023-02-11T00:20:41.042Z,97.20
2023-02-11T00:21:18.060Z,97.20
2023-02-11T00:21:49.835Z,97.30
2023-02-11T00:22:21.709Z,97.80
2023-02-11T00:22:53.504Z,97.20
2023-02-11T00:23:25.350Z,97.20
2023-02-11T00:23:59.647Z,97.20
2023-02-11T00:24:31.913Z,97.20
2023-02-11T00:25:04.144Z,97.20
2023-02-11T00:25:43.147Z,97.20
2023-02-11T00:26:23.982Z,97.20
2023-02-11T00:26:55.964Z,98.00
2023-02-11T00:27:28.573Z,98.30
2023-02-11T00:28:00.544Z,97.20
2023-02-11T00:28:32.417Z,97.20
2023-02-11T00:29:05.405Z,97.20
2023-02-11T00:29:39.042Z,97.70
2023-02-11T00:30:11.625Z,97.20
2023-02-11T00:30:43.517Z,97.20
2023-02-11T00:31:17.052Z,97.60
2023-02-11T00:31:49.227Z,97.70
2023-02-11T00:32:21.219Z,97.20
2023-02-11T00:32:53.294Z,97.20
2023-02-11T00:33:25.145Z,97.40
2023-02-11T00:33:56.967Z,97.60
2023-02-11T00:34:28.778Z,97.30
2023-02-11T00:35:00.606Z,97.40
2023-02-11T00:35:32.644Z,97.20
2023-02-11T00:36:08.100Z,97.20
2023-02-11T00:36:42.605Z,97.20
2023-02-11T00:37:14.373Z,97.20
2023-02-11T00:37:47.064Z,97.20
2023-02-11T00:38:19.253Z,98.10
2023-02-11T00:38:52.568Z,97.70
2023-02-11T00:39:24.454Z,97.20
2023-02-11T00:39:56.192Z,97.40
2023-02-11T00:40:27.966Z,97.90
2023-02-11T00:40:59.789Z,97.80
2023-02-11T00:41:32.338Z,97.30
2023-02-11T00:42:04.667Z,97.30
2023-02-11T00:42:37.385Z,97.30
2023-02-11T00:43:09.132Z,97.40
2023-02-11T00:43:41.596Z,97.80
2023-02-11T00:44:13.332Z,97.30
2023-02-11T00:44:45.213Z,97.30
2023-02-11T00:45:17.147Z,97.30
2023-02-11T00:45:49.257Z,97.30
2023-02-11T00:46:22.470Z,97.30
2023-02-11T00:46:54.376Z,97.60
2023-02-11T00:47:26.236Z,97.40
2023-02-11T00:47:58.191Z,97.40
2023-02-11T00:48:30.086Z,97.40
2023-02-11T00:49:01.942Z,97.40
2023-02-11T00:49:33.790Z,97.40
2023-02-11T00:50:06.729Z,97.40
2023-02-11T00:50:38.553Z,97.40
2023-02-11T00:51:10.596Z,97.60
2023-02-11T00:51:42.383Z,97.40
2023-02-11T00:52:14.425Z,97.40
2023-02-11T00:52:46.958Z,97.40
2023-02-11T00:53:18.725Z,97.50
2023-02-11T00:53:50.579Z,97.90
2023-02-11T00:54:22.368Z,97.90
2023-02-11T00:54:54.120Z,97.50
2023-02-11T00:55:26.051Z,97.40
2023-02-11T00:55:57.850Z,97.90
2023-02-11T00:56:30.962Z,97.80
2023-02-11T00:57:03.103Z,97.40
2023-02-11T00:57:34.972Z,97.40
2023-02-11T00:58:06.702Z,97.60
2023-02-11T00:58:38.556Z,98.00
2023-02-11T00:59:10.359Z,97.50
2023-02-11T00:59:42.270Z,97.40
2023-02-11T01:00:14.694Z,97.50
2023-02-11T01:00:46.503Z,97.50
2023-02-11T01:01:19.013Z,97.50
2023-02-11T01:01:51.625Z,97.90
2023-02-11T01:02:24.920Z,97.80
2023-02-11T01:02:56.748Z,97.50
2023-02-11T01:03:28.951Z,97.80
2023-02-11T01:04:00.755Z,97.60
2023-02-11T01:04:32.563Z,97.60
2023-02-11T01:05:04.729Z,98.50
2023-02-11T01:05:37.750Z,97.60
2023-02-11T01:06:10.445Z,97.60
2023-02-11T01:06:43.211Z,97.70
2023-02-11T01:07:14.969Z,97.90
2023-02-11T01:07:46.935Z,98.20
2023-02-11T01:08:18.808Z,97.70
2023-02-11T01:08:50.580Z,98.10
2023-02-11T01:09:22.405Z,97.90
2023-02-11T01:09:54.208Z,98.50
2023-02-11T01:10:26.239Z,97.70
2023-02-11T01:11:03.566Z,97.70
2023-02-11T01:11:35.464Z,97.70
2023-02-11T01:12:07.387Z,97.80
2023-02-11T01:12:40.346Z,97.80
2023-02-11T01:13:12.569Z,98.40
2023-02-11T01:13:44.803Z,97.80
2023-02-11T01:14:16.649Z,97.80
2023-02-11T01:14:48.664Z,97.80
2023-02-11T01:15:21.618Z,98.50
2023-02-11T01:15:54.262Z,98.30
2023-02-11T01:16:26.426Z,97.80
2023-02-11T01:16:58.461Z,98.00
2023-02-11T01:17:30.317Z,97.80
2023-02-11T01:18:02.244Z,98.20
2023-02-11T01:18:34.945Z,98.40
2023-02-11T01:19:06.735Z,97.80
2023-02-11T01:19:39.060Z,97.80
2023-02-11T01:20:19.127Z,97.10
2023-02-11T01:20:53.893Z,97.90
2023-02-11T01:21:25.952Z,98.30
2023-02-11T01:21:57.742Z,98.80
2023-02-11T01:22:29.596Z,98.60
2023-02-11T01:23:01.378Z,97.90
2023-02-11T01:23:33.418Z,98.50
2023-02-11T01:24:05.371Z,97.90
2023-02-11T01:24:37.254Z,97.90
2023-02-11T01:25:10.363Z,98.50
2023-02-11T01:25:42.175Z,97.90
2023-02-11T01:26:14.140Z,97.90
2023-02-11T01:26:45.996Z,97.90
2023-02-11T01:27:17.849Z,98.00
2023-02-11T01:27:49.765Z,98.50
2023-02-11T01:28:24.789Z,98.00
2023-02-11T01:28:57.388Z,98.00
2023-02-11T01:29:29.222Z,98.00
2023-02-11T01:30:02.218Z,98.00
2023-02-11T01:30:33.999Z,98.50
2023-02-11T01:31:05.897Z,97.90
2023-02-11T01:31:38.121Z,98.00
2023-02-11T01:32:10.083Z,98.50
2023-02-11T01:32:41.929Z,98.00
2023-02-11T01:33:14.613Z,98.00
2023-02-11T01:33:46.464Z,98.00
2023-02-11T01:34:18.345Z,98.00
2023-02-11T01:34:50.631Z,98.00
2023-02-11T01:35:22.441Z,98.10
2023-02-11T01:35:55.480Z,98.70
2023-02-11T01:36:27.317Z,98.00
2023-02-11T01:37:00.121Z,99.00
2023-02-11T01:37:34.331Z,98.30
2023-02-11T01:38:07.743Z,98.10
2023-02-11T01:38:43.685Z,98.00
2023-02-11T01:39:15.813Z,98.10
2023-02-11T01:39:47.665Z,98.00
2023-02-11T01:40:19.636Z,98.20
2023-02-11T01:41:00.253Z,98.20
2023-02-11T01:41:32.084Z,98.00
2023-02-11T01:42:04.084Z,98.20
2023-02-11T01:42:35.938Z,98.10
2023-02-11T01:43:10.363Z,98.00
2023-02-11T01:43:46.304Z,98.30
2023-02-11T01:44:28.613Z,98.90
2023-02-11T01:45:22.164Z,98.20
2023-02-11T01:45:53.927Z,98.30
2023-02-11T01:46:34.059Z,98.00
2023-02-11T01:47:06.485Z,98.00
2023-02-11T01:47:38.375Z,98.00
2023-02-11T01:48:15.614Z,98.10
2023-02-11T01:48:54.744Z,98.80
2023-02-11T01:49:50.732Z,98.60
2023-02-11T01:50:22.865Z,98.10
2023-02-11T01:51:01.378Z,98.00
2023-02-11T01:52:03.011Z,98.00
2023-02-11T01:52:38.909Z,98.00
2023-02-11T01:53:31.891Z,98.40
2023-02-11T01:54:25.535Z,97.60
2023-02-11T01:55:21.210Z,98.00
2023-02-11T01:56:13.919Z,98.80
2023-02-11T01:57:10.574Z,98.00
2023-02-11T01:57:47.468Z,98.10
2023-02-11T01:58:19.378Z,98.00
2023-02-11T01:58:56.802Z,98.10
2023-02-11T01:59:38.200Z,98.60
2023-02-11T02:00:17.488Z,98.10
2023-02-11T02:00:50.348Z,98.10
2023-02-11T02:01:26.814Z,98.10
2023-02-11T02:02:03.439Z,98.40
2023-02-11T02:02:54.312Z,98.10
2023-02-11T02:03:27.170Z,98.10
2023-02-11T02:04:03.206Z,97.60
2023-02-11T02:04:46.690Z,98.10
2023-02-11T02:05:37.173Z,99.10
2023-02-11T02:06:37.246Z,98.10
2023-02-11T02:07:32.633Z,98.10
2023-02-11T02:08:38.277Z,98.40
2023-02-11T02:09:23.297Z,98.20
2023-02-11T02:10:03.064Z,98.20
2023-02-11T02:10:37.795Z,98.20
2023-02-11T02:11:10.165Z,98.20
2023-02-11T02:11:42.749Z,98.20
2023-02-11T02:12:14.658Z,98.20
2023-02-11T02:12:47.485Z,98.20
2023-02-11T02:13:24.718Z,98.40
2023-02-11T02:13:57.980Z,98.40
2023-02-11T02:14:29.764Z,98.20
2023-02-11T02:15:33.625Z,98.50
2023-02-11T02:16:19.572Z,98.20
2023-02-11T02:16:51.441Z,98.20
2023-02-11T02:17:44.214Z,99.10
2023-02-11T02:18:38.999Z,98.30
2023-02-11T02:19:33.705Z,98.40
2023-02-11T02:20:22.427Z,98.30
2023-02-11T02:21:06.189Z,98.30
2023-02-11T02:22:14.020Z,98.30
2023-02-11T02:23:04.626Z,98.30
2023-02-11T02:23:36.327Z,98.30
2023-02-11T02:24:32.691Z,98.30
2023-02-11T02:25:25.993Z,99.00
2023-02-11T02:26:25.930Z,98.40
2023-02-11T02:27:19.114Z,98.40
2023-02-11T02:28:17.907Z,98.40
2023-02-11T02:29:22.913Z,98.60
2023-02-11T02:30:12.691Z,98.40
2023-02-11T02:31:22.645Z,98.40
2023-02-11T02:32:18.032Z,98.40
2023-02-11T02:33:02.139Z,98.40
2023-02-11T02:33:46.648Z,98.40
2023-02-11T02:34:43.132Z,98.40
2023-02-11T02:35:42.522Z,98.50
2023-02-11T02:36:41.017Z,98.60
2023-02-11T02:37:28.375Z,98.40
2023-02-11T02:38:26.745Z,98.60
2023-02-11T02:39:07.613Z,98.40
2023-02-11T02:39:39.814Z,98.50
2023-02-11T02:40:33.102Z,98.50
2023-02-11T02:41:31.857Z,99.10
2023-02-11T02:42:05.046Z,98.40
2023-02-11T02:42:40.162Z,98.40
2023-02-11T02:43:13.773Z,98.40
2023-02-11T02:43:49.203Z,98.40
2023-02-11T02:44:21.815Z,98.40
2023-02-11T02:44:55.951Z,98.40
2023-02-11T02:45:28.019Z,98.40
2023-02-11T02:46:12.228Z,98.60
2023-02-11T02:46:44.408Z,98.40
2023-02-11T02:47:16.522Z,98.40
2023-02-11T02:47:48.318Z,98.80
2023-02-11T02:48:35.731Z,98.40
2023-02-11T02:49:13.543Z,98.50
2023-02-11T02:49:45.505Z,98.30
2023-02-11T02:50:30.213Z,98.40
2023-02-11T02:51:16.154Z,99.00
2023-02-11T02:52:06.905Z,98.40
2023-02-11T02:52:48.087Z,98.30
2023-02-11T02:53:41.319Z,99.10
2023-02-11T02:54:18.953Z,98.30
2023-02-11T02:55:02.851Z,98.30
2023-02-11T02:56:02.624Z,98.30
2023-02-11T02:56:57.688Z,98.30
2023-02-11T02:57:39.089Z,99.00
2023-02-11T02:58:29.525Z,98.30
2023-02-11T02:59:14.188Z,98.30
2023-02-11T03:00:23.593Z,98.30
2023-02-11T03:01:13.639Z,98.20
2023-02-11T03:02:00.239Z,98.30
2023-02-11T03:02:41.503Z,98.30
2023-02-11T03:03:22.836Z,98.50
2023-02-11T03:04:25.214Z,98.20
2023-02-11T03:05:16.090Z,98.20
2023-02-11T03:05:59.256Z,98.20
2023-02-11T03:06:46.655Z,98.60
2023-02-11T03:07:32.688Z,99.10
2023-02-11T03:08:32.828Z,98.60
2023-02-11T03:09:16.316Z,98.20
2023-02-11T03:10:09.292Z,98.20
2023-02-11T03:10:46.612Z,98.10
2023-02-11T03:11:21.520Z,98.10
2023-02-11T03:11:53.776Z,98.60
2023-02-11T03:12:30.842Z,98.20
2023-02-11T03:13:04.868Z,98.30
2023-02-11T03:13:39.898Z,98.70
2023-02-11T03:14:17.194Z,98.50
2023-02-11T03:14:51.985Z,98.80
2023-02-11T03:15:28.030Z,98.20
2023-02-11T03:16:13.539Z,98.40
2023-02-11T03:16:48.416Z,98.10
2023-02-11T03:17:23.487Z,98.50
2023-02-11T03:18:00.175Z,98.20
2023-02-11T03:18:35.539Z,98.10
2023-02-11T03:19:15.295Z,98.10
2023-02-11T03:19:49.924Z,98.50
2023-02-11T03:20:23.492Z,98.00
2023-02-11T03:20:57.662Z,98.00
2023-02-11T03:21:32.908Z,98.00
2023-02-11T03:22:27.872Z,98.40
2023-02-11T03:23:04.530Z,98.00
2023-02-11T03:23:53.881Z,98.10
2023-02-11T03:24:35.105Z,98.00
2023-02-11T03:25:07.559Z,98.00
2023-02-11T03:25:47.094Z,98.00
2023-02-11T03:26:46.648Z,98.00
2023-02-11T03:27:27.271Z,98.00
2023-02-11T03:28:28.128Z,98.10
2023-02-11T03:29:16.488Z,97.90
2023-02-11T03:29:57.742Z,98.00
2023-02-11T03:30:49.232Z,98.50
2023-02-11T03:31:46.128Z,97.90
2023-02-11T03:32:35.477Z,97.90
2023-02-11T03:33:31.379Z,98.00
2023-02-11T03:34:19.017Z,97.90
2023-02-11T03:34:58.825Z,98.20
2023-02-11T03:35:43.168Z,97.90
2023-02-11T03:36:23.006Z,98.40
2023-02-11T03:37:11.740Z,98.60
2023-02-11T03:37:52.795Z,97.90
2023-02-11T03:38:40.033Z,97.90
2023-02-11T03:39:17.569Z,98.10
2023-02-11T03:39:57.181Z,97.90
2023-02-11T03:40:34.559Z,98.40
2023-02-11T03:41:09.913Z,97.80
2023-02-11T03:41:43.479Z,98.00
2023-02-11T03:42:16.610Z,98.00
2023-02-11T03:43:01.154Z,97.80
2023-02-11T03:43:42.898Z,97.80
2023-02-11T03:44:16.918Z,97.80
2023-02-11T03:44:56.478Z,97.80
2023-02-11T03:45:28.991Z,97.80
2023-02-11T03:46:03.222Z,97.80
2023-02-11T03:46:40.103Z,97.80
2023-02-11T03:47:15.546Z,97.70
2023-02-11T03:48:05.572Z,98.00
2023-02-11T03:48:43.667Z,97.80
2023-02-11T03:49:20.307Z,98.10
2023-02-11T03:49:55.452Z,97.70
2023-02-11T03:50:32.183Z,98.70
2023-02-11T03:51:07.767Z,97.80
2023-02-11T03:51:41.014Z,97.70
2023-02-11T03:52:15.606Z,98.40
2023-02-11T03:52:50.141Z,97.90
2023-02-11T03:53:22.946Z,97.70
2023-02-11T03:53:59.036Z,97.70
2023-02-11T03:54:31.655Z,98.30
2023-02-11T03:55:09.189Z,97.60
2023-02-11T03:55:43.889Z,97.60
2023-02-11T03:56:20.590Z,98.00
2023-02-11T03:56:55.640Z,97.60
2023-02-11T03:57:27.517Z,98.10
2023-02-11T03:57:59.349Z,97.70
2023-02-11T03:58:31.251Z,97.60
2023-02-11T03:59:03.279Z,97.60
2023-02-11T03:59:50.936Z,98.40
2023-02-11T04:00:33.818Z,97.60
2023-02-11T04:01:09.760Z,97.50
2023-02-11T04:01:41.782Z,97.50
2023-02-11T04:02:13.529Z,97.90
2023-02-11T04:02:45.634Z,98.10
2023-02-11T04:03:17.731Z,97.90
2023-02-11T04:03:49.701Z,97.60
2023-02-11T04:04:21.551Z,97.70
2023-02-11T04:04:53.508Z,97.50
2023-02-11T04:05:25.368Z,97.50
2023-02-11T04:05:57.158Z,97.50
2023-02-11T04:06:28.900Z,97.90
2023-02-11T04:07:00.652Z,97.40
2023-02-11T04:07:32.976Z,97.50
2023-02-11T04:08:05.509Z,97.40
2023-02-11T04:08:37.256Z,97.40
2023-02-11T04:09:10.793Z,97.40
2023-02-11T04:09:42.613Z,97.40
2023-02-11T04:10:14.523Z,97.50
2023-02-11T04:10:46.375Z,97.40
2023-02-11T04:11:18.219Z,97.40
2023-02-11T04:11:50.002Z,97.40
2023-02-11T04:12:22.249Z,97.60
2023-02-11T04:12:54.056Z,98.20
2023-02-11T04:13:28.128Z,97.80
2023-02-11T04:13:59.965Z,97.70
2023-02-11T04:14:31.926Z,97.40
2023-02-11T04:15:03.981Z,97.40
2023-02-11T04:15:35.743Z,97.60
2023-02-11T04:16:07.849Z,97.60
2023-02-11T04:16:39.693Z,97.40
2023-02-11T04:17:12.790Z,97.50
2023-02-11T04:17:44.981Z,98.10
2023-02-11T04:18:16.849Z,97.50
2023-02-11T04:18:48.908Z,97.30
2023-02-11T04:19:20.642Z,97.60
2023-02-11T04:19:52.431Z,98.00
2023-02-11T04:20:24.259Z,97.30
2023-02-11T04:20:56.057Z,97.30
2023-02-11T04:21:27.981Z,97.90
2023-02-11T04:22:00.424Z,98.10
2023-02-11T04:22:32.399Z,97.30
2023-02-11T04:23:04.129Z,97.30
2023-02-11T04:23:36.057Z,98.20
2023-02-11T04:24:07.892Z,97.30
2023-02-11T04:24:39.779Z,97.20
2023-02-11T04:25:11.797Z,97.70
2023-02-11T04:25:43.667Z,97.50
2023-02-11T04:26:15.537Z,97.30
2023-02-11T04:26:47.329Z,97.20
2023-02-11T04:27:19.216Z,97.80
2023-02-11T04:27:51.013Z,97.20
2023-02-11T04:28:22.865Z,97.20
2023-02-11T04:28:54.680Z,98.00
2023-02-11T04:29:28.160Z,97.70
2023-02-11T04:29:59.891Z,97.20
2023-02-11T04:30:31.619Z,97.20
2023-02-11T04:31:03.642Z,97.20
2023-02-11T04:31:35.555Z,97.70
2023-02-11T04:32:07.655Z,97.40
2023-02-11T04:32:39.497Z,97.20
2023-02-11T04:33:11.377Z,97.20
2023-02-11T04:33:43.109Z,97.50
2023-02-11T04:34:15.233Z,97.50
2023-02-11T04:34:47.534Z,97.20
2023-02-11T04:35:19.424Z,97.90
2023-02-11T04:35:51.558Z,97.40
2023-02-11T04:36:23.444Z,97.50
2023-02-11T04:36:55.262Z,97.10
2023-02-11T04:37:27.028Z,97.10
2023-02-11T04:37:58.779Z,97.10
2023-02-11T04:38:30.578Z,97.10
2023-02-11T04:39:02.546Z,97.10
2023-02-11T04:39:35.001Z,98.00
2023-02-11T04:40:07.387Z,97.10
2023-02-11T04:40:39.437Z,97.10
2023-02-11T04:41:11.303Z,97.10
2023-02-11T04:41:43.107Z,97.10
2023-02-11T04:42:15.070Z,97.40
2023-02-11T04:42:46.899Z,97.10
2023-02-11T04:43:18.847Z,97.10
2023-02-11T04:43:50.621Z,97.10
2023-02-11T04:44:22.481Z,97.60
2023-02-11T04:44:54.230Z,97.50
2023-02-11T04:45:26.016Z,97.10
2023-02-11T04:45:59.058Z,97.10
2023-02-11T04:46:31.004Z,97.40
2023-02-11T04:47:02.907Z,97.70
2023-02-11T04:47:35.192Z,97.10
2023-02-11T04:48:06.976Z,97.30
2023-02-11T04:48:38.841Z,97.00
2023-02-11T04:49:13.622Z,97.00
2023-02-11T04:49:45.512Z,97.40
2023-02-11T04:50:17.329Z,97.80
2023-02-11T04:50:49.225Z,97.00
2023-02-11T04:51:21.091Z,97.70
2023-02-11T04:51:52.869Z,97.00
2023-02-11T04:52:24.666Z,97.60
2023-02-11T04:52:56.461Z,97.90
2023-02-11T04:53:28.294Z,97.70
2023-02-11T04:54:00.164Z,97.00
2023-02-11T04:54:31.932Z,97.10
2023-02-11T04:55:04.708Z,97.10
2023-02-11T04:55:36.535Z,97.00
2023-02-11T04:56:08.365Z,97.00
2023-02-11T04:56:40.371Z,97.90
2023-02-11T04:57:12.204Z,97.00
2023-02-11T04:57:44.043Z,97.00
2023-02-11T04:58:16.200Z,96.90
2023-02-11T04:58:47.937Z,97.60
2023-02-11T04:59:19.825Z,96.90
2023-02-11T04:59:51.653Z,96.90
2023-02-11T05:00:23.398Z,97.40
2023-02-11T05:00:55.245Z,97.40
2023-02-11T05:01:27.188Z,97.10
2023-02-11T05:01:59.113Z,96.90
2023-02-11T05:02:31.148Z,97.00
2023-02-11T05:03:02.965Z,97.20
2023-02-11T05:03:34.912Z,96.90
2023-02-11T05:04:06.864Z,97.40
2023-02-11T05:04:38.644Z,97.50
2023-02-11T05:05:10.391Z,96.90
2023-02-11T05:05:43.134Z,97.00
2023-02-11T05:06:15.379Z,96.90
2023-02-11T05:06:47.195Z,97.10
2023-02-11T05:07:19.010Z,96.90
2023-02-11T05:07:50.857Z,96.80
2023-02-11T05:08:22.628Z,97.50
2023-02-11T05:08:54.427Z,97.30
2023-02-11T05:09:26.265Z,97.50
2023-02-11T05:09:58.107Z,97.20
2023-02-11T05:10:29.891Z,96.80
2023-02-11T05:11:02.169Z,97.10
2023-02-11T05:11:34.191Z,97.00
2023-02-11T05:12:06.117Z,96.80
2023-02-11T05:12:37.911Z,96.80
2023-02-11T05:13:09.683Z,96.80
2023-02-11T05:13:41.583Z,96.80
2023-02-11T05:14:13.426Z,96.80
2023-02-11T05:14:45.432Z,96.90
2023-02-11T05:15:17.329Z,96.70
2023-02-11T05:15:49.696Z,97.00
2023-02-11T05:16:22.588Z,97.40
2023-02-11T05:16:54.502Z,96.70
2023-02-11T05:17:26.324Z,96.70
2023-02-11T05:17:58.575Z,97.00
2023-02-11T05:18:30.360Z,97.00
2023-02-11T05:19:02.190Z,97.20
2023-02-11T05:19:34.109Z,96.70
2023-02-11T05:20:06.418Z,97.50
2023-02-11T05:20:39.140Z,96.70
2023-02-11T05:21:14.139Z,97.70
2023-02-11T05:22:01.329Z,96.90
2023-02-11T05:22:34.197Z,97.50
2023-02-11T05:23:06.048Z,96.70
2023-02-11T05:23:39.447Z,96.80
2023-02-11T05:24:11.254Z,96.80
2023-02-11T05:24:43.091Z,96.90
2023-02-11T05:25:14.889Z,96.90
2023-02-11T05:25:46.710Z,96.70
2023-02-11T05:26:18.963Z,96.70
2023-02-11T05:26:50.718Z,96.90
2023-02-11T05:27:22.471Z,96.70
2023-02-11T05:27:54.188Z,96.90
2023-02-11T05:28:26.059Z,96.70
2023-02-11T05:28:57.877Z,96.70
2023-02-11T05:29:30.019Z,97.40
2023-02-11T05:30:02.038Z,96.90
2023-02-11T05:30:34.051Z,96.60
2023-02-11T05:31:06.128Z,96.60
2023-02-11T05:31:37.879Z,96.80
2023-02-11T05:32:09.665Z,96.80
2023-02-11T05:32:41.603Z,96.70
2023-02-11T05:33:13.356Z,97.10
2023-02-11T05:33:45.240Z,96.60
2023-02-11T05:34:17.058Z,96.60
2023-02-11T05:34:48.931Z,96.60
2023-02-11T05:35:21.096Z,96.70
2023-02-11T05:35:57.943Z,97.50
2023-02-11T05:36:33.296Z,96.70
2023-02-11T05:37:06.154Z,96.60
2023-02-11T05:37:38.143Z,96.60
2023-02-11T05:38:10.102Z,97.10
2023-02-11T05:38:43.230Z,96.60
2023-02-11T05:39:15.092Z,96.80
2023-02-11T05:39:46.995Z,97.30
2023-02-11T05:40:18.813Z,96.60
2023-02-11T05:40:50.597Z,96.60
2023-02-11T05:41:22.407Z,97.40
2023-02-11T05:41:54.158Z,96.50
2023-02-11T05:42:26.045Z,96.80
2023-02-11T05:42:57.854Z,96.60
2023-02-11T05:43:29.689Z,97.30
2023-02-11T05:44:01.534Z,97.00
2023-02-11T05:44:33.459Z,96.60
2023-02-11T05:45:05.816Z,96.60
2023-02-11T05:45:37.631Z,96.50
2023-02-11T05:46:09.490Z,96.50
2023-02-11T05:46:41.381Z,97.30
2023-02-11T05:47:13.194Z,96.50
2023-02-11T05:47:45.028Z,96.50
2023-02-11T05:48:17.770Z,97.10
2023-02-11T05:48:49.702Z,96.70
2023-02-11T05:49:21.454Z,97.50
2023-02-11T05:49:53.614Z,96.50
2023-02-11T05:50:25.873Z,97.20
2023-02-11T05:50:58.061Z,96.60
2023-02-11T05:51:29.776Z,97.10
2023-02-11T05:52:01.575Z,97.10
2023-02-11T05:52:33.454Z,96.50
2023-02-11T05:53:06.772Z,96.50
2023-02-11T05:53:38.784Z,97.00
2023-02-11T05:54:10.789Z,96.70
2023-02-11T05:54:42.635Z,96.50
2023-02-11T05:55:14.455Z,97.10
2023-02-11T05:55:46.269Z,96.50
2023-02-11T05:56:18.055Z,96.50
2023-02-11T05:56:49.820Z,97.10
2023-02-11T05:57:21.576Z,97.20
2023-02-11T05:57:53.423Z,97.50
2023-02-11T05:58:25.170Z,97.30
2023-02-11T05:59:00.003Z,96.50
2023-02-11T05:59:31.788Z,96.50
2023-02-11T06:00:04.931Z,97.00
2023-02-11T06:00:44.195Z,96.50
2023-02-11T06:01:16.010Z,96.60
2023-02-11T06:01:47.875Z,96.50
2023-02-11T06:02:19.638Z,97.40
2023-02-11T06:02:51.464Z,97.10
2023-02-11T06:03:23.398Z,97.00
2023-02-11T06:03:55.404Z,96.40
2023-02-11T06:04:27.220Z,96.50
2023-02-11T06:04:59.154Z,96.50
2023-02-11T06:05:31.733Z,96.70
2023-02-11T06:06:03.808Z,96.60
2023-02-11T06:06:35.672Z,97.30
2023-02-11T06:07:07.624Z,96.80
2023-02-11T06:07:39.400Z,96.50
2023-02-11T06:08:11.641Z,97.50
2023-02-11T06:08:43.603Z,96.50
2023-02-11T06:09:15.354Z,96.50
2023-02-11T06:09:47.172Z,97.40
2023-02-11T06:10:19.061Z,96.50
2023-02-11T06:10:51.260Z,96.50
2023-02-11T06:11:23.320Z,96.50
2023-02-11T06:11:55.184Z,96.50
2023-02-11T06:12:27.405Z,96.60
2023-02-11T06:12:59.221Z,97.20
2023-02-11T06:13:31.108Z,96.60
2023-02-11T06:14:02.920Z,97.00
2023-02-11T06:14:34.759Z,96.60
2023-02-11T06:15:07.534Z,96.90
2023-02-11T06:15:39.596Z,96.60
2023-02-11T06:16:11.526Z,96.60
2023-02-11T06:16:43.378Z,97.20
2023-02-11T06:17:15.789Z,97.50
2023-02-11T06:17:47.727Z,96.90
2023-02-11T06:18:19.510Z,97.40
2023-02-11T06:18:51.247Z,96.70
2023-02-11T06:19:23.000Z,96.80
2023-02-11T06:19:54.767Z,96.60
2023-02-11T06:20:26.642Z,96.60
2023-02-11T06:20:58.374Z,96.60
2023-02-11T06:21:43.010Z,97.00
2023-02-11T06:22:16.006Z,97.60
2023-02-11T06:22:47.871Z,96.90
2023-02-11T06:23:19.759Z,96.80
2023-02-11T06:23:51.580Z,96.70
2023-02-11T06:24:47.715Z,96.60
2023-02-11T06:25:15.704Z,97.30
2023-02-11T06:25:47.689Z,97.00
2023-02-11T06:26:21.932Z,96.70
2023-02-11T06:26:53.804Z,97.30
2023-02-11T06:27:25.800Z,96.70
2023-02-11T06:27:57.952Z,97.40
2023-02-11T06:28:31.431Z,96.70
2023-02-11T06:29:03.458Z,96.70
2023-02-11T06:29:35.211Z,97.00
2023-02-11T06:30:07.934Z,97.00
2023-02-11T06:30:39.743Z,96.70
2023-02-11T06:31:12.208Z,96.70
2023-02-11T06:31:44.110Z,97.40
2023-02-11T06:32:35.692Z,96.70
2023-02-11T06:33:07.602Z,97.00
2023-02-11T06:33:39.845Z,97.00
2023-02-11T06:34:11.774Z,96.80
2023-02-11T06:34:43.724Z,96.80
2023-02-11T06:35:15.506Z,96.80
2023-02-11T06:35:47.303Z,96.80
2023-02-11T06:36:21.170Z,96.80
2023-02-11T06:36:53.009Z,97.00
2023-02-11T06:37:24.964Z,97.20
2023-02-11T06:37:56.735Z,96.80
2023-02-11T06:38:28.571Z,96.90
2023-02-11T06:39:00.340Z,96.90
2023-02-11T06:39:32.387Z,97.00
2023-02-11T06:40:04.454Z,97.10
2023-02-11T06:40:36.189Z,96.90
2023-02-11T06:41:12.491Z,96.90
2023-02-11T06:41:44.325Z,97.10
2023-02-11T06:42:16.159Z,96.90
2023-02-11T06:42:47.969Z,97.30
2023-02-11T06:43:20.025Z,96.10
2023-02-11T06:43:53.621Z,96.90
2023-02-11T06:44:25.585Z,97.20
2023-02-11T06:44:57.462Z,97.70
2023-02-11T06:45:29.323Z,97.50
2023-02-11T06:46:01.127Z,97.10
2023-02-11T06:46:33.099Z,97.30
2023-02-11T06:47:05.375Z,97.00
2023-02-11T06:47:37.621Z,97.60
2023-02-11T06:48:09.942Z,97.20
2023-02-11T06:48:44.482Z,98.00
2023-02-11T06:49:16.676Z,97.20
2023-02-11T06:49:48.437Z,97.70
2023-02-11T06:50:20.322Z,97.90
2023-02-11T06:50:52.067Z,97.10
2023-02-11T06:51:24.327Z,97.10
2023-02-11T06:51:56.196Z,98.00
2023-02-11T06:52:28.146Z,97.70
2023-02-11T06:53:00.278Z,97.10
2023-02-11T06:53:35.824Z,97.20
2023-02-11T06:54:08.359Z,97.30
2023-02-11T06:54:40.107Z,97.20
2023-02-11T06:55:11.947Z,97.60
2023-02-11T06:55:43.747Z,97.40
2023-02-11T06:56:22.303Z,97.40
2023-02-11T06:56:54.186Z,97.20
2023-02-11T06:57:26.144Z,97.20
2023-02-11T06:57:57.928Z,97.20
2023-02-11T06:58:29.698Z,97.20
2023-02-11T06:59:01.591Z,97.40
2023-02-11T06:59:33.372Z,97.60
2023-02-11T07:00:06.526Z,97.60
2023-02-11T07:00:38.350Z,97.30
2023-02-11T07:01:13.144Z,98.10
2023-02-11T07:01:45.004Z,97.60
2023-02-11T07:02:19.658Z,98.20
2023-02-11T07:02:52.578Z,97.50
2023-02-11T07:03:24.625Z,97.50
2023-02-11T07:03:56.523Z,97.70
2023-02-11T07:04:28.449Z,97.30
2023-02-11T07:05:00.195Z,97.30
2023-02-11T07:05:34.158Z,97.30
2023-02-11T07:06:07.894Z,98.20
2023-02-11T07:06:39.629Z,97.30
2023-02-11T07:07:13.732Z,97.40
2023-02-11T07:07:45.607Z,98.20
2023-02-11T07:08:17.472Z,97.70
2023-02-11T07:08:49.855Z,97.70
2023-02-11T07:09:21.636Z,98.00
2023-02-11T07:09:53.413Z,97.80
2023-02-11T07:10:25.197Z,97.70
2023-02-11T07:10:56.978Z,97.50
2023-02-11T07:11:29.455Z,98.00
2023-02-11T07:12:01.332Z,97.40
2023-02-11T07:12:33.214Z,97.60
2023-02-11T07:13:05.497Z,97.60
2023-02-11T07:13:37.460Z,97.40
2023-02-11T07:14:10.340Z,98.00
2023-02-11T07:14:42.636Z,97.10
2023-02-11T07:15:14.469Z,97.40
2023-02-11T07:15:46.251Z,97.50
2023-02-11T07:16:19.381Z,98.10
2023-02-11T07:16:51.577Z,97.70
2023-02-11T07:17:23.482Z,98.10
2023-02-11T07:17:55.307Z,98.00
2023-02-11T07:18:27.079Z,97.50
2023-02-11T07:18:58.846Z,97.50
2023-02-11T07:19:30.766Z,97.50
2023-02-11T07:20:03.194Z,98.10
2023-02-11T07:20:34.968Z,98.00
2023-02-11T07:21:09.006Z,97.70
2023-02-11T07:21:41.042Z,97.50
2023-02-11T07:22:12.818Z,97.50
2023-02-11T07:22:44.643Z,97.60
2023-02-11T07:23:16.395Z,97.80
2023-02-11T07:23:48.712Z,98.40
2023-02-11T07:24:20.577Z,97.60
2023-02-11T07:24:52.417Z,97.60
2023-02-11T07:25:24.200Z,97.90
2023-02-11T07:25:56.188Z,97.60
2023-02-11T07:26:28.976Z,97.60
2023-02-11T07:27:00.799Z,97.60
2023-02-11T07:27:32.617Z,97.70
2023-02-11T07:28:04.685Z,97.60
2023-02-11T07:28:38.154Z,97.60
2023-02-11T07:29:09.888Z,98.10
2023-02-11T07:29:42.661Z,97.60
2023-02-11T07:30:14.982Z,97.60
2023-02-11T07:30:46.745Z,97.60
2023-02-11T07:31:24.739Z,98.50